createdAt,value
2022-11-22T00:01:20.676Z,98.86
2022-11-22T00:03:49.004Z,98.83
2022-11-22T00:06:17.427Z,98.83
2022-11-22T00:08:45.810Z,98.94
2022-11-22T00:11:14.137Z,98.77
2022-11-22T00:13:42.446Z,98.89
2022-11-22T00:16:10.773Z,98.76
2022-11-22T00:18:39.103Z,98.85
2022-11-22T00:21:08.792Z,98.87
2022-11-22T00:23:37.274Z,99.14
2022-11-22T00:26:07.207Z,99.00
2022-11-22T00:28:35.654Z,99.14
2022-11-22T00:31:03.992Z,99.15
2022-11-22T00:33:32.388Z,99.34
2022-11-22T00:36:00.700Z,99.14
2022-11-22T00:38:29.340Z,99.28
2022-11-22T00:40:57.754Z,99.01
2022-11-22T00:44:09.187Z,98.99
2022-11-22T00:46:38.077Z,99.05
2022-11-22T00:49:06.535Z,99.15
2022-11-22T00:51:34.962Z,98.96
2022-11-22T00:54:03.381Z,99.19
2022-11-22T00:56:32.239Z,99.17
2022-11-22T00:59:00.773Z,99.24
2022-11-22T01:01:29.229Z,99.21
2022-11-22T01:03:57.724Z,99.34
2022-11-22T01:06:26.149Z,99.17
2022-11-22T01:08:54.604Z,99.14
2022-11-22T01:11:23.036Z,99.45
2022-11-22T01:13:51.424Z,99.17
2022-11-22T01:16:20.008Z,99.18
2022-11-22T01:18:48.417Z,99.13
2022-11-22T01:21:16.744Z,98.89
2022-11-22T01:23:45.101Z,98.99
2022-11-22T01:26:13.934Z,99.26
2022-11-22T01:28:42.297Z,99.33
2022-11-22T01:31:10.647Z,99.14
2022-11-22T01:33:39.013Z,99.44
2022-11-22T01:36:10.599Z,99.68
2022-11-22T01:38:38.913Z,99.76
2022-11-22T01:41:07.326Z,99.85
2022-11-22T01:43:35.769Z,99.84
2022-11-22T01:46:09.901Z,99.89
2022-11-22T01:48:50.058Z,99.94
2022-11-22T01:51:46.773Z,99.89
2022-11-22T01:54:22.584Z,99.97
2022-11-22T01:56:58.856Z,100.00
2022-11-22T01:59:32.889Z,100.00
2022-11-22T02:02:02.535Z,100.00
2022-11-22T02:04:32.899Z,100.00
2022-11-22T02:07:27.233Z,100.00
2022-11-22T02:09:55.615Z,100.00
2022-11-22T02:12:31.959Z,100.00
2022-11-22T02:15:00.637Z,100.00
2022-11-22T02:17:29.132Z,100.00
2022-11-22T02:19:57.482Z,100.00
2022-11-22T02:22:37.225Z,100.00
2022-11-22T02:25:26.218Z,100.00
2022-11-22T02:27:54.587Z,100.00
2022-11-22T02:30:23.704Z,100.00
2022-11-22T02:32:52.074Z,100.00
2022-11-22T02:35:27.117Z,100.00
2022-11-22T02:38:19.184Z,100.00
2022-11-22T02:40:57.261Z,100.00
2022-11-22T02:43:31.568Z,100.00
2022-11-22T02:46:09.228Z,100.00
2022-11-22T02:48:45.117Z,100.00
2022-11-22T02:51:19.961Z,100.00
2022-11-22T02:53:50.805Z,100.00
2022-11-22T02:56:19.780Z,100.00
2022-11-22T02:58:48.179Z,100.00
2022-11-22T03:01:16.556Z,100.00
2022-11-22T03:03:45.094Z,100.00
2022-11-22T03:06:13.448Z,100.00
2022-11-22T03:08:41.709Z,100.00
2022-11-22T03:11:10.118Z,100.00
2022-11-22T03:13:38.437Z,100.00
2022-11-22T03:16:07.330Z,100.00
2022-11-22T03:18:37.318Z,100.00
2022-11-22T03:21:09.808Z,100.00
2022-11-22T03:23:38.315Z,100.00
2022-11-22T03:26:09.921Z,100.00
2022-11-22T03:28:38.489Z,100.00
2022-11-22T03:31:08.181Z,100.00
2022-11-22T03:33:36.516Z,100.00
2022-11-22T03:36:05.594Z,100.00
2022-11-22T03:38:35.932Z,100.00
2022-11-22T03:41:04.444Z,100.00
2022-11-22T03:43:32.842Z,100.00
2022-11-22T03:46:01.614Z,100.00
2022-11-22T03:48:30.639Z,100.00
2022-11-22T03:51:07.009Z,100.00
2022-11-22T03:53:35.365Z,100.00
2022-11-22T03:56:04.940Z,100.00
2022-11-22T03:58:34.274Z,100.00
2022-11-22T04:01:02.885Z,100.00
2022-11-22T04:03:31.542Z,100.00
2022-11-22T04:05:59.974Z,100.00
2022-11-22T04:08:28.416Z,100.00
2022-11-22T04:10:56.789Z,100.00
2022-11-22T04:13:47.912Z,100.00
2022-11-22T04:16:16.366Z,100.00
2022-11-22T04:18:44.711Z,100.00
2022-11-22T04:21:31.622Z,100.00
2022-11-22T04:24:26.716Z,100.00
2022-11-22T04:26:56.173Z,100.00
2022-11-22T04:29:24.765Z,100.00
2022-11-22T04:32:12.415Z,100.00
2022-11-22T04:34:40.801Z,100.00
2022-11-22T04:37:09.134Z,100.00
2022-11-22T04:39:37.594Z,100.00
2022-11-22T04:42:24.844Z,100.00
2022-11-22T04:44:53.203Z,100.00
2022-11-22T04:47:40.375Z,100.00
2022-11-22T04:50:29.341Z,100.00
2022-11-22T04:52:58.136Z,100.00
2022-11-22T04:55:26.568Z,100.00
2022-11-22T04:57:59.626Z,100.00
2022-11-22T05:00:30.333Z,100.00
2022-11-22T05:02:59.594Z,100.00
2022-11-22T05:05:28.724Z,100.00
2022-11-22T05:08:00.440Z,100.00
2022-11-22T05:10:28.895Z,100.00
2022-11-22T05:12:57.358Z,100.00
2022-11-22T05:15:25.762Z,100.00
2022-11-22T05:17:54.133Z,100.00
2022-11-22T05:20:22.484Z,100.00
2022-11-22T05:23:09.733Z,100.00
2022-11-22T05:25:38.117Z,100.00
2022-11-22T05:28:06.502Z,100.00
2022-11-22T05:30:34.789Z,100.00
2022-11-22T05:33:03.134Z,100.00
2022-11-22T05:35:31.822Z,100.00
2022-11-22T05:38:00.227Z,100.00
2022-11-22T05:40:28.555Z,100.00
2022-11-22T05:42:59.316Z,100.00
2022-11-22T05:45:27.666Z,100.00
2022-11-22T05:47:56.885Z,100.00
2022-11-22T05:50:25.329Z,100.00
2022-11-22T05:52:53.904Z,100.00
2022-11-22T05:55:22.352Z,100.00
2022-11-22T05:57:50.709Z,100.00
2022-11-22T06:00:19.311Z,100.00
2022-11-22T06:02:47.851Z,100.00
2022-11-22T06:05:16.502Z,100.00
2022-11-22T06:07:45.790Z,100.00
2022-11-22T06:10:14.268Z,100.00
2022-11-22T06:12:42.658Z,100.00
2022-11-22T06:15:11.336Z,100.00
2022-11-22T06:17:39.660Z,100.00
2022-11-22T06:20:09.270Z,100.00
2022-11-22T06:22:37.965Z,100.00
2022-11-22T06:25:07.157Z,100.00
2022-11-22T06:27:35.543Z,100.00
2022-11-22T06:30:04.800Z,100.00
2022-11-22T06:32:34.876Z,100.00
2022-11-22T06:35:04.540Z,100.00
2022-11-22T06:37:33.003Z,100.00
2022-11-22T06:40:01.598Z,100.00
2022-11-22T06:42:30.350Z,100.00
2022-11-22T06:44:58.987Z,100.00
2022-11-22T06:47:27.944Z,100.00
2022-11-22T06:49:56.641Z,100.00
2022-11-22T06:52:53.771Z,100.00
2022-11-22T06:55:49.208Z,100.00
2022-11-22T06:58:11.456Z,100.00
2022-11-22T07:00:40.006Z,100.00
2022-11-22T07:03:09.226Z,100.00
2022-11-22T07:05:38.332Z,100.00
2022-11-22T07:08:13.494Z,100.00
2022-11-22T07:10:43.056Z,100.00
2022-11-22T07:13:12.166Z,100.00
2022-11-22T07:15:40.940Z,100.00
2022-11-22T07:20:45.091Z,100.00
2022-11-22T07:23:15.919Z,100.00
2022-11-22T07:25:47.349Z,100.00
2022-11-22T07:28:16.687Z,100.00
2022-11-22T07:30:45.775Z,100.00
2022-11-22T07:33:15.173Z,100.00
2022-11-22T07:35:44.247Z,100.00
2022-11-22T07:38:13.527Z,100.00
2022-11-22T07:40:43.175Z,100.00
2022-11-22T07:43:11.852Z,100.00
2022-11-22T07:45:41.145Z,100.00
2022-11-22T07:48:10.497Z,100.00
2022-11-22T07:50:39.242Z,100.00
2022-11-22T07:53:10.072Z,100.00
2022-11-22T07:55:38.782Z,100.00
2022-11-22T07:58:07.354Z,100.00
2022-11-22T08:00:35.979Z,100.00
2022-11-22T08:03:04.413Z,100.00
2022-11-22T08:05:32.928Z,100.00
2022-11-22T08:08:01.487Z,100.00
2022-11-22T08:10:29.913Z,100.00
2022-11-22T08:13:00.405Z,100.00
2022-11-22T08:15:28.788Z,100.00
2022-11-22T08:17:57.193Z,100.00
2022-11-22T08:20:25.777Z,100.00
2022-11-22T08:22:54.249Z,100.00
2022-11-22T08:25:22.594Z,100.00
2022-11-22T08:27:50.933Z,100.00
2022-11-22T08:30:19.464Z,100.00
2022-11-22T08:32:48.067Z,100.00
2022-11-22T08:35:16.510Z,100.00
2022-11-22T08:37:44.854Z,100.00
2022-11-22T08:40:14.223Z,100.00
2022-11-22T08:42:42.588Z,100.00
2022-11-22T08:45:11.154Z,100.00
2022-11-22T08:47:39.490Z,100.00
2022-11-22T08:50:08.652Z,100.00
2022-11-22T08:52:37.007Z,100.00
2022-11-22T08:55:06.074Z,100.00
2022-11-22T08:57:34.384Z,100.00
2022-11-22T09:00:03.814Z,100.00
2022-11-22T09:02:32.260Z,100.00
2022-11-22T09:05:00.763Z,100.00
2022-11-22T09:10:18.787Z,100.00
2022-11-22T09:12:47.307Z,100.00
2022-11-22T09:15:15.970Z,100.00
2022-11-22T09:17:44.628Z,100.00
2022-11-22T09:20:13.569Z,100.00
2022-11-22T09:22:42.092Z,100.00
2022-11-22T09:25:10.503Z,100.00
2022-11-22T09:27:38.919Z,100.00
2022-11-22T09:30:08.160Z,100.00
2022-11-22T09:32:36.667Z,100.00
2022-11-22T09:35:05.564Z,100.00
2022-11-22T09:37:33.899Z,100.00
2022-11-22T09:40:02.751Z,100.00
2022-11-22T09:42:44.524Z,100.00
2022-11-22T09:45:44.102Z,100.00
2022-11-22T09:48:59.282Z,100.00
2022-11-22T09:51:37.180Z,100.00
2022-11-22T09:54:13.697Z,100.00
2022-11-22T09:56:44.016Z,100.00
2022-11-22T09:59:29.710Z,100.00
2022-11-22T10:02:59.570Z,100.00
2022-11-22T10:05:44.977Z,100.00
2022-11-22T10:12:23.473Z,100.00
2022-11-22T10:15:05.036Z,100.00
2022-11-22T10:18:06.088Z,100.00
2022-11-22T10:20:45.703Z,100.00
2022-11-22T10:23:24.537Z,100.00
2022-11-22T10:26:26.915Z,100.00
2022-11-22T10:29:16.310Z,100.00
2022-11-22T10:32:09.474Z,100.00
2022-11-22T10:35:06.798Z,100.00
2022-11-22T10:37:52.112Z,100.00
2022-11-22T10:40:28.636Z,100.00
2022-11-22T10:43:18.904Z,100.00
2022-11-22T10:45:55.363Z,100.00
2022-11-22T10:48:43.943Z,100.00
2022-11-22T10:51:27.436Z,100.00
2022-11-22T10:54:14.334Z,100.00
2022-11-22T10:57:03.195Z,100.00
2022-11-22T10:59:34.816Z,100.00
2022-11-22T11:02:26.267Z,100.00
2022-11-22T11:04:58.643Z,100.00
2022-11-22T11:07:27.606Z,100.00
2022-11-22T11:10:11.191Z,100.00
2022-11-22T11:12:57.336Z,100.00
2022-11-22T11:15:37.712Z,100.00
2022-11-22T11:18:18.237Z,100.00
2022-11-22T11:20:48.012Z,100.00
2022-11-22T11:23:16.928Z,100.00
2022-11-22T11:25:48.341Z,100.00
2022-11-22T11:28:22.131Z,100.00
2022-11-22T11:31:06.641Z,100.00
2022-11-22T11:33:39.234Z,100.00
2022-11-22T11:36:14.073Z,100.00
2022-11-22T11:38:42.405Z,100.00
2022-11-22T11:41:30.312Z,100.00
2022-11-22T11:44:01.846Z,100.00
2022-11-22T11:46:39.380Z,100.00
2022-11-22T11:49:17.368Z,100.00
2022-11-22T11:51:56.106Z,100.00
2022-11-22T11:54:30.686Z,100.00
2022-11-22T11:57:03.879Z,100.00
2022-11-22T11:59:38.405Z,100.00
2022-11-22T12:02:41.748Z,100.00
2022-11-22T12:05:13.438Z,100.00
2022-11-22T12:07:47.974Z,100.00
2022-11-22T12:10:41.193Z,100.00
2022-11-22T12:13:27.435Z,100.00
2022-11-22T12:16:09.660Z,100.00
2022-11-22T12:18:48.925Z,100.00
2022-11-22T12:21:42.111Z,100.00
2022-11-22T12:27:13.094Z,100.00
2022-11-22T12:29:45.964Z,100.00
2022-11-22T12:32:27.471Z,100.00
2022-11-22T12:35:16.367Z,100.00
2022-11-22T12:38:01.246Z,100.00
2022-11-22T12:40:41.464Z,99.97
2022-11-22T12:43:29.340Z,99.96
2022-11-22T12:46:10.413Z,100.00
2022-11-22T12:48:52.426Z,100.00
2022-11-22T12:51:40.328Z,100.00
2022-11-22T12:54:17.253Z,100.00
2022-11-22T12:56:55.316Z,99.96
2022-11-22T12:59:37.759Z,100.00
2022-11-22T13:02:29.998Z,100.00
2022-11-22T13:05:05.902Z,100.00
2022-11-22T13:08:11.207Z,100.00
2022-11-22T13:10:56.613Z,100.00
2022-11-22T13:13:28.370Z,100.00
2022-11-22T13:16:00.390Z,100.00
2022-11-22T13:18:34.998Z,100.00
2022-11-22T13:21:19.592Z,100.00
2022-11-22T13:24:17.370Z,100.00
2022-11-22T13:26:57.677Z,100.00
2022-11-22T13:29:33.423Z,100.00
2022-11-22T13:32:16.606Z,100.00
2022-11-22T13:35:12.918Z,100.00
2022-11-22T13:37:52.380Z,100.00
2022-11-22T13:40:33.125Z,100.00
2022-11-22T13:43:18.013Z,100.00
2022-11-22T13:45:59.425Z,100.00
2022-11-22T13:48:40.390Z,100.00
2022-11-22T13:51:20.157Z,100.00
2022-11-22T13:53:49.791Z,100.00
2022-11-22T13:56:27.431Z,100.00
2022-11-22T13:59:24.091Z,100.00
2022-11-22T14:01:52.713Z,100.00
2022-11-22T14:04:24.834Z,100.00
2022-11-22T14:07:10.736Z,100.00
2022-11-22T14:09:42.338Z,100.00
2022-11-22T14:12:10.882Z,100.00
2022-11-22T14:14:49.775Z,100.00
2022-11-22T14:17:42.546Z,100.00
2022-11-22T14:20:20.381Z,100.00
2022-11-22T14:26:41.874Z,100.00
2022-11-22T14:29:41.703Z,100.00
2022-11-22T14:32:19.991Z,100.00
2022-11-22T14:35:04.135Z,100.00
2022-11-22T14:37:32.773Z,100.00
2022-11-22T14:40:07.471Z,100.00
2022-11-22T14:42:40.200Z,100.00
2022-11-22T14:45:11.687Z,100.00
2022-11-22T14:47:52.643Z,100.00
2022-11-22T14:50:36.439Z,100.00
2022-11-22T14:53:34.830Z,100.00
2022-11-22T14:56:21.392Z,100.00
2022-11-22T14:59:16.001Z,100.00
2022-11-22T15:01:56.712Z,100.00
2022-11-22T15:09:23.400Z,100.00
2022-11-22T15:10:04.634Z,100.00
2022-11-22T15:13:07.155Z,100.00
2022-11-22T15:57:38.261Z,100.00
2022-11-22T16:00:21.084Z,100.00
2022-11-22T16:02:53.960Z,100.00
2022-11-22T16:06:07.518Z,100.00
2022-11-22T16:08:22.349Z,100.00
2022-11-22T16:10:51.863Z,100.00
2022-11-22T16:13:20.388Z,100.00
2022-11-22T16:16:20.388Z,100.00
2022-11-22T16:18:48.993Z,100.00
2022-11-22T16:21:17.475Z,100.00
2022-11-22T16:23:46.913Z,100.00
2022-11-22T16:26:22.073Z,100.00
2022-11-22T16:28:56.847Z,100.00
2022-11-22T16:31:31.487Z,100.00
2022-11-22T16:34:01.758Z,100.00
2022-11-22T16:36:30.674Z,100.00
2022-11-22T16:38:59.797Z,100.00
2022-11-22T16:41:29.697Z,100.00
2022-11-22T16:44:07.863Z,100.00
2022-11-22T16:46:36.406Z,100.00
2022-11-22T16:49:18.200Z,100.00
2022-11-22T16:51:50.155Z,100.00
2022-11-22T16:54:21.059Z,100.00
2022-11-22T16:56:49.752Z,100.00
2022-11-22T16:59:18.271Z,100.00
2022-11-22T17:01:46.930Z,100.00
2022-11-22T17:04:25.405Z,100.00
2022-11-22T17:06:54.695Z,100.00
2022-11-22T17:09:23.389Z,100.00
2022-11-22T17:11:52.167Z,100.00
2022-11-22T17:14:20.912Z,100.00
2022-11-22T17:16:49.809Z,100.00
2022-11-22T17:19:45.366Z,100.00
2022-11-22T17:22:07.372Z,100.00
2022-11-22T17:24:36.256Z,100.00
2022-11-22T17:27:05.271Z,100.00
2022-11-22T17:29:50.729Z,100.00
2022-11-22T17:32:20.369Z,100.00
2022-11-22T17:34:49.033Z,100.00
2022-11-22T17:37:17.568Z,100.00
2022-11-22T17:39:46.941Z,100.00
2022-11-22T17:42:17.546Z,100.00
2022-11-22T17:44:46.260Z,100.00
2022-11-22T17:47:15.006Z,100.00
2022-11-22T17:49:43.958Z,100.00
2022-11-22T17:52:12.548Z,100.00
2022-11-22T17:54:41.498Z,100.00
2022-11-22T17:57:10.349Z,100.00
2022-11-22T17:59:38.949Z,100.00
2022-11-22T18:02:09.142Z,100.00
2022-11-22T18:04:38.316Z,100.00
2022-11-22T18:07:06.902Z,100.00
2022-11-22T18:09:35.445Z,100.00
2022-11-22T18:12:04.952Z,100.00
2022-11-22T18:14:34.719Z,100.00
2022-11-22T18:17:03.365Z,100.00
2022-11-22T18:19:32.082Z,100.00
2022-11-22T18:22:00.828Z,100.00
2022-11-22T18:24:29.553Z,100.00
2022-11-22T18:26:58.355Z,100.00
2022-11-22T18:29:43.157Z,100.00
2022-11-22T18:32:12.649Z,100.00
2022-11-22T18:34:41.923Z,100.00
2022-11-22T18:37:10.664Z,100.00
2022-11-22T18:39:40.487Z,100.00
2022-11-22T18:42:16.296Z,100.00
2022-11-22T18:44:44.943Z,100.00
2022-11-22T18:47:13.615Z,100.00
2022-11-22T18:49:42.178Z,100.00
2022-11-22T18:52:13.430Z,100.00
2022-11-22T18:54:45.537Z,100.00
2022-11-22T18:57:14.077Z,100.00
2022-11-22T18:59:42.715Z,100.00
2022-11-22T19:02:11.576Z,100.00
2022-11-22T19:04:40.195Z,100.00
2022-11-22T19:07:08.760Z,100.00
2022-11-22T19:09:37.467Z,100.00
2022-11-22T19:12:07.020Z,100.00
2022-11-22T19:14:35.771Z,100.00
2022-11-22T19:17:05.666Z,100.00
2022-11-22T19:19:34.568Z,100.00
2022-11-22T19:22:03.595Z,100.00
2022-11-22T19:24:32.405Z,100.00
2022-11-22T19:27:01.321Z,100.00
2022-11-22T19:29:30.393Z,100.00
2022-11-22T19:31:59.378Z,100.00
2022-11-22T19:34:29.146Z,100.00
2022-11-22T19:36:57.840Z,100.00
2022-11-22T19:39:27.341Z,100.00
2022-11-22T19:41:55.925Z,100.00
2022-11-22T19:44:24.490Z,100.00
2022-11-22T19:46:52.994Z,100.00
2022-11-22T19:49:21.522Z,100.00
2022-11-22T19:51:50.055Z,100.00
2022-11-22T19:54:18.682Z,100.00
2022-11-22T19:56:47.334Z,100.00
2022-11-22T19:59:17.322Z,100.00
2022-11-22T20:01:46.071Z,100.00
2022-11-22T20:04:15.747Z,100.00
2022-11-22T20:06:49.714Z,100.00
2022-11-22T20:09:18.977Z,100.00
2022-11-22T20:11:47.606Z,100.00
2022-11-22T20:14:16.652Z,100.00
2022-11-22T20:16:45.403Z,100.00
2022-11-22T20:19:15.425Z,100.00
2022-11-22T20:21:44.947Z,100.00
2022-11-22T20:24:14.391Z,100.00
2022-11-22T20:26:44.001Z,100.00
2022-11-22T20:29:14.135Z,100.00
2022-11-22T20:31:43.208Z,100.00
2022-11-22T20:34:11.914Z,100.00
2022-11-22T20:36:40.502Z,100.00
2022-11-22T20:39:10.688Z,100.00
2022-11-22T20:41:40.768Z,100.00
2022-11-22T20:44:14.965Z,100.00
2022-11-22T20:46:44.590Z,100.00
2022-11-22T20:49:13.121Z,100.00
2022-11-22T20:51:42.796Z,100.00
2022-11-22T20:54:12.077Z,100.00
2022-11-22T20:56:40.706Z,100.00
2022-11-22T20:59:09.563Z,100.00
2022-11-22T21:01:38.451Z,100.00
2022-11-22T21:04:07.241Z,100.00
2022-11-22T21:06:35.938Z,100.00
2022-11-22T21:09:04.624Z,100.00
2022-11-22T21:11:33.289Z,100.00
2022-11-22T21:14:04.060Z,100.00
2022-11-22T21:16:39.808Z,100.00
2022-11-22T21:19:09.475Z,100.00
2022-11-22T21:21:38.617Z,100.00
2022-11-22T21:24:07.986Z,100.00
2022-11-22T21:26:36.801Z,100.00
2022-11-22T21:29:16.034Z,100.00
2022-11-22T21:31:45.248Z,100.00
2022-11-22T21:34:14.797Z,100.00
2022-11-22T21:36:43.362Z,100.00
2022-11-22T21:39:11.908Z,100.00
2022-11-22T21:41:41.399Z,100.00
2022-11-22T21:44:10.986Z,100.00
2022-11-22T21:46:40.202Z,100.00
2022-11-22T21:49:08.789Z,100.00
2022-11-22T21:51:37.520Z,100.00
2022-11-22T21:54:06.552Z,100.00
2022-11-22T21:56:35.592Z,100.00
2022-11-22T21:59:04.294Z,100.00
2022-11-22T22:01:33.612Z,100.00
2022-11-22T22:04:03.592Z,100.00
2022-11-22T22:06:32.789Z,100.00
2022-11-22T22:13:34.787Z,100.00
2022-11-22T22:16:12.859Z,100.00
2022-11-22T22:18:43.226Z,100.00
2022-11-22T22:21:13.222Z,100.00
2022-11-22T22:23:43.559Z,100.00
2022-11-22T22:26:16.557Z,100.00
2022-11-22T22:28:46.077Z,100.00
2022-11-22T22:31:24.042Z,100.00
2022-11-22T22:33:57.672Z,100.00
2022-11-22T22:36:27.748Z,100.00
2022-11-22T22:38:56.369Z,100.00
2022-11-22T22:41:25.050Z,100.00
2022-11-22T22:43:53.609Z,100.00
2022-11-22T22:46:27.572Z,100.00
2022-11-22T22:48:56.715Z,100.00
2022-11-22T22:51:32.916Z,100.00
2022-11-22T22:54:02.562Z,100.00
2022-11-22T22:56:32.375Z,100.00
2022-11-22T23:05:00.738Z,100.00
2022-11-22T23:07:29.404Z,100.00
2022-11-22T23:09:57.999Z,100.00
2022-11-22T23:12:27.365Z,100.00
2022-11-22T23:14:56.262Z,100.00
2022-11-22T23:17:25.968Z,100.00
2022-11-22T23:19:54.518Z,100.00
2022-11-22T23:22:25.899Z,100.00
2022-11-22T23:24:54.671Z,100.00
2022-11-22T23:27:23.228Z,100.00
2022-11-22T23:29:51.773Z,100.00
2022-11-22T23:32:20.347Z,100.00
2022-11-22T23:34:49.114Z,100.00
2022-11-22T23:37:17.617Z,100.00
2022-11-22T23:39:46.141Z,100.00
2022-11-22T23:42:16.144Z,100.00
2022-11-22T23:44:44.647Z,100.00
2022-11-22T23:47:13.235Z,100.00
2022-11-22T23:49:41.762Z,100.00
2022-11-22T23:52:10.315Z,100.00
2022-11-22T23:54:38.882Z,100.00
2022-11-22T23:57:07.396Z,100.00
2022-11-22T23:59:36.012Z,100.00
